Time;durP1;ratioP1;P1;durP2;ratioP2;P2;SDS_P1;SDS_P2;PMS_P1;PMS_P2;Temp;Humidity;BMP_temperature;BMP_pressure;BME280_temperature;BME280_humidity;BME280_pressure;Samples;Min_cycle;Max_cycle;Signal;HPM_P1;HPM_P2
2022/12/05 00:01:27;;;;;;;1999.90;999.90;;;2.20;99.90;;;;;;5094940;28;20158;-76
2022/12/05 00:03:55;;;;;;;1999.90;999.90;;;2.20;99.90;;;;;;5080175;28;20127;-76
2022/12/05 00:06:22;;;;;;;1999.90;999.90;;;2.10;99.90;;;;;;5069929;28;20028;-76
2022/12/05 00:08:48;;;;;;;1999.90;999.90;;;2.10;99.90;;;;;;5054973;28;20072;-75
2022/12/05 00:11:26;;;;;;;1999.90;999.90;;;2.10;99.90;;;;;;5054314;28;20452;-75
2022/12/05 00:13:53;;;;;;;1999.90;999.90;;;2.00;99.90;;;;;;5054799;28;20025;-76
2022/12/05 00:16:21;;;;;;;1999.90;999.90;;;2.00;99.90;;;;;;5070066;28;20112;-76
2022/12/05 00:18:47;;;;;;;1999.90;999.90;;;2.00;99.90;;;;;;5053932;28;20139;-76
2022/12/05 00:21:21;;;;;;;1999.90;999.90;;;2.00;99.90;;;;;;5053951;28;20520;-76
2022/12/05 00:23:48;;;;;;;1999.90;999.90;;;1.90;99.90;;;;;;5054529;28;20052;-77
2022/12/05 00:26:14;;;;;;;1999.90;999.90;;;1.90;99.90;;;;;;5054046;28;20511;-75
2022/12/05 00:28:40;;;;;;;1999.90;999.90;;;1.90;99.90;;;;;;5062225;28;20480;-76
2022/12/05 00:31:12;;;;;;;1999.90;999.90;;;1.90;99.90;;;;;;5069257;28;20078;-76
2022/12/05 00:33:38;;;;;;;1999.90;999.90;;;1.80;99.90;;;;;;5074190;28;20492;-77
2022/12/05 00:36:07;;;;;;;1999.90;999.90;;;1.70;99.90;;;;;;5078144;28;20096;-78
2022/12/05 00:38:33;;;;;;;1999.90;999.90;;;1.80;99.90;;;;;;5097665;28;20013;-77
2022/12/05 00:41:07;;;;;;;1999.90;999.90;;;1.80;99.90;;;;;;5096767;28;20072;-76
2022/12/05 00:43:33;;;;;;;1999.90;999.90;;;1.80;99.90;;;;;;5083538;28;20068;-77
2022/12/05 00:46:07;;;;;;;1999.90;999.90;;;1.70;99.90;;;;;;5088019;28;20047;-76
2022/12/05 00:48:33;;;;;;;1999.90;999.90;;;1.70;99.90;;;;;;5093793;28;20039;-76
2022/12/05 00:51:08;;;;;;;1999.90;999.90;;;1.70;99.90;;;;;;5072245;28;20426;-76
2022/12/05 00:53:34;;;;;;;1999.90;999.90;;;1.70;99.90;;;;;;5072709;28;20487;-74
2022/12/05 00:56:02;;;;;;;1999.90;999.90;;;1.70;99.90;;;;;;5073916;28;20571;-76
2022/12/05 00:58:28;;;;;;;1999.90;999.90;;;1.70;99.90;;;;;;5073696;28;20104;-76
2022/12/05 01:00:54;;;;;;;1999.90;999.90;;;1.70;99.90;;;;;;5077220;28;20517;-76
2022/12/05 01:03:19;;;;;;;1999.90;999.90;;;1.70;99.90;;;;;;5073258;28;20040;-76
2022/12/05 01:05:45;;;;;;;1999.90;999.90;;;1.60;99.90;;;;;;5072417;28;20020;-76
2022/12/05 01:08:11;;;;;;;1999.90;999.90;;;1.60;99.90;;;;;;5073978;28;20035;-76
2022/12/05 01:10:37;;;;;;;1999.90;999.90;;;1.70;99.90;;;;;;5073116;28;20039;-76
2022/12/05 01:13:02;;;;;;;1999.90;999.90;;;1.60;99.90;;;;;;5073202;28;20037;-76
2022/12/05 01:15:28;;;;;;;1999.90;999.90;;;1.70;99.90;;;;;;5073247;28;20078;-76
2022/12/05 01:17:53;;;;;;;1999.90;999.90;;;1.70;99.90;;;;;;5072994;28;20024;-75
2022/12/05 01:20:19;;;;;;;1999.90;999.90;;;1.60;99.90;;;;;;5073188;28;20369;-76
2022/12/05 01:22:45;;;;;;;1999.90;999.90;;;1.60;99.90;;;;;;5072952;28;20021;-74
2022/12/05 01:25:10;;;;;;;1999.90;999.90;;;1.70;99.90;;;;;;5072568;28;20055;-76
2022/12/05 01:27:36;;;;;;;1999.90;999.90;;;1.60;99.90;;;;;;5070938;28;20036;-75
2022/12/05 01:30:03;;;;;;;1999.90;999.90;;;1.70;99.90;;;;;;5069371;28;20021;-76
2022/12/05 01:32:28;;;;;;;1999.90;999.90;;;1.70;99.90;;;;;;5072572;28;20028;-76
2022/12/05 01:34:54;;;;;;;1999.90;999.90;;;1.80;99.90;;;;;;5072851;28;20441;-76
2022/12/05 01:37:19;;;;;;;1999.90;999.90;;;1.80;99.90;;;;;;5072911;28;20078;-76
2022/12/05 01:39:47;;;;;;;1999.90;999.90;;;1.80;99.90;;;;;;5072903;28;20020;-76
2022/12/05 01:42:12;;;;;;;1999.90;999.90;;;1.80;99.90;;;;;;5070127;28;20111;-76
2022/12/05 01:44:38;;;;;;;1999.90;999.90;;;1.80;99.90;;;;;;5065251;28;20095;-76
2022/12/05 01:47:03;;;;;;;1999.90;999.90;;;1.80;99.90;;;;;;5092880;28;20024;-76
2022/12/05 01:49:35;;;;;;;1999.90;999.90;;;1.80;99.90;;;;;;5092959;28;20016;-76
2022/12/05 01:52:06;;;;;;;1999.90;999.90;;;1.80;99.90;;;;;;5092630;28;20107;-76
2022/12/05 01:54:35;;;;;;;1999.90;999.90;;;1.80;99.90;;;;;;5092562;28;20059;-76
2022/12/05 01:57:04;;;;;;;1999.90;999.90;;;1.80;99.90;;;;;;5092898;28;20037;-76
2022/12/05 01:59:34;;;;;;;1999.90;999.90;;;1.80;99.90;;;;;;5092736;28;20022;-76
2022/12/05 02:02:01;;;;;;;1999.90;999.90;;;1.70;99.90;;;;;;5093078;28;20103;-76
2022/12/05 02:04:27;;;;;;;1999.90;999.90;;;1.80;99.90;;;;;;5073380;28;20067;-76
2022/12/05 02:06:53;;;;;;;1999.90;999.90;;;1.80;99.90;;;;;;5072446;28;20051;-76
2022/12/05 02:09:19;;;;;;;1999.90;999.90;;;1.70;99.90;;;;;;5072467;28;20035;-76
2022/12/05 02:11:54;;;;;;;1999.90;999.90;;;1.60;99.90;;;;;;5072468;28;20029;-76
2022/12/05 02:14:31;;;;;;;1999.90;999.90;;;1.60;99.90;;;;;;5072274;28;20024;-76
2022/12/05 02:17:22;;;;;;;1999.90;999.90;;;1.60;99.90;;;;;;5070995;28;20372;-76
2022/12/05 02:20:20;;;;;;;1999.90;999.90;;;1.60;99.90;;;;;;5072384;28;20028;-76
2022/12/05 02:22:54;;;;;;;1999.90;999.90;;;1.60;99.90;;;;;;5071975;28;20093;-76
2022/12/05 02:25:58;;;;;;;1999.90;999.90;;;1.80;99.90;;;;;;5071921;28;20021;-76
2022/12/05 02:28:45;;;;;;;1999.90;999.90;;;1.80;99.90;;;;;;5043423;28;20041;-76
2022/12/05 02:31:19;;;;;;;1999.90;999.90;;;1.80;99.90;;;;;;5072277;28;20024;-74
2022/12/05 02:33:50;;;;;;;1999.90;999.90;;;1.70;99.90;;;;;;5072212;28;20032;-74
2022/12/05 02:36:24;;;;;;;1999.90;999.90;;;1.80;99.90;;;;;;5072371;28;20368;-76
2022/12/05 02:38:56;;;;;;;1999.90;999.90;;;1.70;99.90;;;;;;5072110;28;20032;-76
2022/12/05 02:41:31;;;;;;;1999.90;999.90;;;1.70;99.90;;;;;;5070365;28;20020;-76
2022/12/05 02:44:35;;;;;;;1999.90;999.90;;;1.60;99.90;;;;;;5055529;28;20107;-75
2022/12/05 02:47:03;;;;;;;1999.90;999.90;;;1.60;99.90;;;;;;5092217;28;20482;-76
2022/12/05 02:49:35;;;;;;;1999.90;999.90;;;1.60;99.90;;;;;;5112574;28;20024;-78
2022/12/05 02:52:04;;;;;;;1999.90;999.90;;;1.50;99.90;;;;;;5114992;28;20068;-77
2022/12/05 02:54:36;;;;;;;1999.90;999.90;;;1.60;99.90;;;;;;5114629;28;20040;-75
2022/12/05 02:57:03;;;;;;;1999.90;999.90;;;1.50;99.90;;;;;;5107204;28;20091;-77
2022/12/05 02:59:29;;;;;;;1999.90;999.90;;;1.50;99.90;;;;;;5115522;28;20036;-77
2022/12/05 03:01:54;;;;;;;1999.90;999.90;;;1.40;99.90;;;;;;5115615;28;20025;-76
2022/12/05 03:04:23;;;;;;;1999.90;999.90;;;1.50;99.90;;;;;;5082686;28;20044;-76
2022/12/05 03:06:56;;;;;;;1999.90;999.90;;;1.50;99.90;;;;;;5075710;28;20050;-76
2022/12/05 03:09:39;;;;;;;1999.90;999.90;;;1.40;99.90;;;;;;5075528;28;20044;-73
2022/12/05 03:12:07;;;;;;;1999.90;999.90;;;1.40;99.90;;;;;;5075829;28;20544;-74
2022/12/05 03:14:45;;;;;;;1999.90;999.90;;;1.30;99.90;;;;;;5075450;28;20098;-76
2022/12/05 03:17:27;;;;;;;1999.90;999.90;;;1.30;99.90;;;;;;5075562;28;20095;-76
2022/12/05 03:19:55;;;;;;;1999.90;999.90;;;1.20;99.90;;;;;;5075657;28;20099;-74
2022/12/05 03:22:27;;;;;;;1999.90;999.90;;;1.20;99.90;;;;;;5075420;28;20461;-74
2022/12/05 03:24:53;;;;;;;1999.90;999.90;;;1.10;99.90;;;;;;5074907;28;20064;-76
2022/12/05 03:27:28;;;;;;;1999.90;999.90;;;1.10;99.90;;;;;;5073156;28;20051;-75
2022/12/05 03:30:08;;;;;;;1999.90;999.90;;;1.20;99.90;;;;;;5074039;28;20040;-76
2022/12/05 03:32:55;;;;;;;1999.90;999.90;;;1.10;99.90;;;;;;5074936;28;20161;-74
2022/12/05 03:35:48;;;;;;;1999.90;999.90;;;1.00;99.90;;;;;;5078021;28;20028;-74
2022/12/05 03:38:29;;;;;;;;;;;0.90;99.90;;;;;;5086624;28;20025;-74
2022/12/05 03:41:12;;;;;;;1999.90;999.90;;;0.90;99.90;;;;;;5075266;28;19908;-75
2022/12/05 03:43:51;;;;;;;1999.90;999.90;;;0.80;99.90;;;;;;5060674;28;20029;-74
2022/12/05 03:46:39;;;;;;;1999.90;999.90;;;0.70;99.90;;;;;;5094639;28;20021;-75
2022/12/05 03:49:14;;;;;;;1999.90;999.90;;;0.70;99.90;;;;;;5095211;28;20430;-75
2022/12/05 03:51:57;;;;;;;1999.90;999.90;;;0.70;99.90;;;;;;5095518;28;20024;-76
2022/12/05 03:54:26;;;;;;;1999.90;999.90;;;0.70;99.90;;;;;;5094154;28;20020;-73
2022/12/05 03:57:19;;;;;;;1999.90;999.90;;;0.60;99.90;;;;;;5095327;28;20024;-74
2022/12/05 03:59:58;;;;;;;1999.90;999.90;;;0.60;99.90;;;;;;5063837;28;20511;-74
2022/12/05 04:02:29;;;;;;;1999.90;999.90;;;0.70;99.90;;;;;;5092763;28;20491;-74
2022/12/05 04:05:08;;;;;;;1999.90;999.90;;;0.70;99.90;;;;;;5074382;28;20478;-74
2022/12/05 04:07:38;;;;;;;1999.90;999.90;;;0.80;99.90;;;;;;5074630;28;20408;-74
2022/12/05 04:10:13;;;;;;;1999.90;999.90;;;0.80;99.90;;;;;;5074746;28;20020;-74
2022/12/05 04:12:42;;;;;;;1999.90;999.90;;;0.80;99.90;;;;;;5073915;28;20021;-76
2022/12/05 04:15:13;;;;;;;1999.90;999.90;;;0.90;99.90;;;;;;5071524;28;20024;-74
2022/12/05 04:17:51;;;;;;;1999.90;999.90;;;0.90;99.90;;;;;;5073788;28;20492;-76
2022/12/05 04:23:08;;;;;;;1999.90;999.90;;;0.90;99.90;;;;;;5075554;28;20028;-73
2022/12/05 04:26:02;;;;;;;1999.90;999.90;;;0.90;99.90;;;;;;5081831;28;20031;-77
2022/12/05 04:28:38;;;;;;;1999.90;999.90;;;1.00;99.90;;;;;;5073689;28;20020;-74
2022/12/05 04:31:09;;;;;;;1999.90;999.90;;;0.90;99.90;;;;;;5063914;28;20406;-74
2022/12/05 04:33:42;;;;;;;1999.90;999.90;;;0.90;99.90;;;;;;5073114;28;20032;-78
2022/12/05 04:36:22;;;;;;;1999.90;999.90;;;1.00;99.90;;;;;;5076151;28;20506;-74
2022/12/05 04:38:53;;;;;;;1999.90;999.90;;;0.80;99.90;;;;;;5073959;28;20025;-73
2022/12/05 04:41:24;;;;;;;1999.90;999.90;;;0.70;99.90;;;;;;5073522;28;20020;-74
2022/12/05 04:43:53;;;;;;;1999.90;999.90;;;0.80;99.90;;;;;;5058098;28;20032;-74
2022/12/05 04:46:20;;;;;;;1999.90;999.90;;;0.70;99.90;;;;;;5094022;28;20475;-76
2022/12/05 04:48:53;;;;;;;1999.90;999.90;;;0.70;99.90;;;;;;5093988;28;20020;-74
2022/12/05 04:51:21;;;;;;;;;;;0.80;99.90;;;;;;5094508;28;20550;-74
2022/12/05 04:53:49;;;;;;;1999.90;999.90;;;0.80;99.90;;;;;;5093114;28;20004;-74
2022/12/05 04:56:19;;;;;;;1999.90;999.90;;;0.90;99.90;;;;;;5093649;28;20395;-74
2022/12/05 04:58:44;;;;;;;1999.90;999.90;;;0.80;99.90;;;;;;5093061;28;20020;-76
2022/12/05 05:01:25;;;;;;;1999.90;999.90;;;0.80;99.90;;;;;;5093642;28;20031;-74
2022/12/05 05:04:00;;;;;;;1999.90;999.90;;;0.80;99.90;;;;;;5079543;28;20045;-74
2022/12/05 05:06:26;;;;;;;1999.90;999.90;;;0.80;99.90;;;;;;5073668;28;20025;-74
2022/12/05 05:08:54;;;;;;;1999.90;999.90;;;0.80;99.90;;;;;;5073245;28;20027;-74
2022/12/05 05:11:30;;;;;;;1999.90;999.90;;;0.80;99.90;;;;;;5073166;28;20032;-74
2022/12/05 05:13:55;;;;;;;1999.90;999.90;;;0.80;99.90;;;;;;5073304;28;20024;-74
2022/12/05 05:16:30;;;;;;;1999.90;999.90;;;0.90;99.90;;;;;;5073500;28;20105;-74
2022/12/05 05:18:56;;;;;;;1999.90;999.90;;;1.00;99.90;;;;;;5073225;28;20495;-74
2022/12/05 05:21:29;;;;;;;1999.90;999.90;;;1.00;99.90;;;;;;5073059;28;20031;-74
2022/12/05 05:23:55;;;;;;;1999.90;999.90;;;1.00;99.90;;;;;;5073265;28;20498;-76
2022/12/05 05:26:23;;;;;;;1999.90;999.90;;;1.00;99.90;;;;;;5072536;28;20036;-74
2022/12/05 05:28:50;;;;;;;1999.90;999.90;;;1.00;99.90;;;;;;5072000;28;20020;-74
2022/12/05 05:31:17;;;;;;;1999.90;999.90;;;1.00;99.90;;;;;;5071746;28;20029;-74
2022/12/05 05:33:42;;;;;;;1999.90;999.90;;;0.90;99.90;;;;;;5073098;28;20031;-74
2022/12/05 05:36:11;;;;;;;1999.90;999.90;;;0.90;99.90;;;;;;5073110;28;20029;-74
2022/12/05 05:38:38;;;;;;;1999.90;999.90;;;0.90;99.90;;;;;;5072776;28;20024;-74
2022/12/05 05:41:05;;;;;;;1999.90;999.90;;;0.80;99.90;;;;;;5072379;28;20078;-74
2022/12/05 05:43:31;;;;;;;1999.90;999.90;;;0.70;99.90;;;;;;5059491;28;20025;-74
2022/12/05 05:45:57;;;;;;;1999.90;999.90;;;0.70;99.90;;;;;;5086833;28;20088;-76
2022/12/05 05:48:22;;;;;;;1999.90;999.90;;;0.70;99.90;;;;;;5093100;28;20020;-74
2022/12/05 05:50:48;;;;;;;1999.90;999.90;;;0.70;99.90;;;;;;5092992;28;20027;-74
2022/12/05 05:53:14;;;;;;;1999.90;999.90;;;0.70;99.90;;;;;;5092710;28;20198;-74
2022/12/05 05:55:40;;;;;;;1999.90;999.90;;;0.60;99.90;;;;;;5091753;28;20111;-74
2022/12/05 05:58:06;;;;;;;1999.90;999.90;;;0.60;99.90;;;;;;5084703;28;20028;-74
2022/12/05 06:00:32;;;;;;;1999.90;999.90;;;0.60;99.90;;;;;;5072449;28;20107;-74
2022/12/05 06:02:58;;;;;;;1999.90;999.90;;;0.60;99.90;;;;;;5071973;28;20111;-74
2022/12/05 06:05:23;;;;;;;1999.90;999.90;;;0.50;99.90;;;;;;5072345;28;20066;-73
2022/12/05 06:07:52;;;;;;;1999.90;999.90;;;0.50;99.90;;;;;;5072400;28;20121;-74
2022/12/05 06:10:17;;;;;;;1999.90;999.90;;;0.50;99.90;;;;;;5072211;28;20020;-73
2022/12/05 06:12:43;;;;;;;1999.90;999.90;;;0.40;99.90;;;;;;5070119;28;20069;-74
2022/12/05 06:15:09;;;;;;;1999.90;999.90;;;0.40;99.90;;;;;;5072227;28;20021;-74
2022/12/05 06:17:35;;;;;;;1999.90;999.90;;;0.40;99.90;;;;;;5072140;28;20307;-74
2022/12/05 06:20:00;;;;;;;1999.90;999.90;;;0.40;99.90;;;;;;5072334;28;20484;-76
2022/12/05 06:22:26;;;;;;;1999.90;999.90;;;0.40;99.90;;;;;;5071918;28;20395;-76
2022/12/05 06:24:52;;;;;;;1999.90;999.90;;;0.40;99.90;;;;;;5071679;28;20024;-74
2022/12/05 06:27:17;;;;;;;1999.90;999.90;;;0.40;99.90;;;;;;5070782;28;20391;-74
2022/12/05 06:29:43;;;;;;;1999.90;999.90;;;0.40;99.90;;;;;;5072038;28;20031;-74
2022/12/05 06:32:09;;;;;;;1999.90;999.90;;;0.50;99.90;;;;;;5072056;28;20029;-74
2022/12/05 06:34:35;;;;;;;1999.90;999.90;;;0.40;99.90;;;;;;5064983;28;20045;-76
2022/12/05 06:37:01;;;;;;;1999.90;999.90;;;0.40;99.90;;;;;;5067114;28;20037;-74
2022/12/05 06:39:27;;;;;;;1999.90;999.90;;;0.50;99.90;;;;;;5070429;28;20403;-74
2022/12/05 06:41:52;;;;;;;1999.90;999.90;;;0.50;99.90;;;;;;5069669;28;20024;-74
2022/12/05 06:44:20;;;;;;;1999.90;999.90;;;0.50;99.90;;;;;;5070587;28;20452;-75
2022/12/05 06:46:46;;;;;;;1999.90;999.90;;;0.50;99.90;;;;;;5071748;28;20032;-76
2022/12/05 06:49:12;;;;;;;1999.90;999.90;;;0.60;99.90;;;;;;5071429;28;20012;-77
2022/12/05 06:51:37;;;;;;;1999.90;999.90;;;0.50;99.90;;;;;;5071871;28;20028;-75
2022/12/05 06:54:04;;;;;;;1999.90;999.90;;;0.50;99.90;;;;;;5071079;28;20453;-77
2022/12/05 06:56:29;;;;;;;1999.90;999.90;;;0.50;99.90;;;;;;5064341;28;20028;-78
2022/12/05 06:58:55;;;;;;;1999.90;999.90;;;0.40;99.90;;;;;;5063458;28;20040;-77
2022/12/05 07:01:41;;;;;;;1999.90;999.90;;;0.50;99.90;;;;;;5066191;28;20024;-77
2022/12/05 07:04:14;;;;;;;1999.90;999.90;;;0.40;99.90;;;;;;5067205;28;20180;-74
2022/12/05 07:06:42;;;;;;;1999.90;999.90;;;0.40;99.90;;;;;;5068437;28;20020;-76
2022/12/05 07:09:08;;;;;;;1999.90;999.90;;;0.50;99.90;;;;;;5074984;28;20025;-77
2022/12/05 07:11:34;;;;;;;1999.90;999.90;;;0.40;99.90;;;;;;5068357;28;20377;-78
2022/12/05 07:14:01;;;;;;;1999.90;999.90;;;0.50;99.90;;;;;;5069102;28;20096;-77
2022/12/05 07:16:26;;;;;;;1999.90;999.90;;;0.50;99.90;;;;;;5068716;28;20032;-78
2022/12/05 07:18:52;;;;;;;1999.90;999.90;;;0.60;99.90;;;;;;5069723;28;20761;-77
2022/12/05 07:21:20;;;;;;;1999.90;999.90;;;0.60;99.90;;;;;;5066757;28;20025;-78
2022/12/05 07:23:47;;;;;;;1999.90;999.90;;;0.60;99.90;;;;;;5069892;28;20590;-77
2022/12/05 07:26:16;;;;;;;1999.90;999.90;;;0.70;99.90;;;;;;5069220;28;20020;-77
2022/12/05 07:28:41;;;;;;;1999.90;999.90;;;0.70;99.90;;;;;;5071443;28;20100;-74
2022/12/05 07:31:10;;;;;;;1999.90;999.90;;;0.70;99.90;;;;;;5068292;28;20162;-78
2022/12/05 07:33:36;;;;;;;1999.90;999.90;;;0.70;99.90;;;;;;5070851;28;20024;-74
2022/12/05 07:36:12;;;;;;;1999.90;999.90;;;0.70;99.90;;;;;;5064504;28;20036;-77
2022/12/05 07:38:39;;;;;;;1999.90;999.90;;;0.70;99.90;;;;;;5065941;28;20438;-76
2022/12/05 07:41:07;;;;;;;1999.90;999.90;;;0.70;99.90;;;;;;5071360;28;20368;-77
2022/12/05 07:43:32;;;;;;;1999.90;999.90;;;0.70;99.90;;;;;;5061555;28;20020;-73
2022/12/05 07:46:03;;;;;;;1999.90;999.90;;;0.80;99.90;;;;;;5071199;28;20518;-73
2022/12/05 07:48:29;;;;;;;1999.90;999.90;;;0.80;99.90;;;;;;5061551;28;20033;-74
2022/12/05 07:51:02;;;;;;;1999.90;999.90;;;0.80;99.90;;;;;;5065167;28;20127;-76
2022/12/05 07:53:29;;;;;;;1999.90;999.90;;;0.90;99.90;;;;;;5073110;28;20109;-74
2022/12/05 07:55:54;;;;;;;1999.90;999.90;;;0.90;99.90;;;;;;5072160;28;20029;-74
2022/12/05 07:58:20;;;;;;;1999.90;999.90;;;0.90;99.90;;;;;;5058510;28;20024;-76
2022/12/05 08:00:46;;;;;;;1999.90;999.90;;;1.00;99.90;;;;;;5067097;28;20573;-76
2022/12/05 08:03:11;;;;;;;1999.90;999.90;;;0.90;99.90;;;;;;5060091;28;20048;-76
2022/12/05 08:05:37;;;;;;;1999.90;999.90;;;0.90;99.90;;;;;;5063336;28;20033;-74
2022/12/05 08:08:03;;;;;;;1999.90;999.90;;;1.00;99.90;;;;;;5068637;28;20024;-73
2022/12/05 08:10:29;;;;;;;1999.90;999.90;;;1.10;99.90;;;;;;5066147;28;20518;-77
2022/12/05 08:12:54;;;;;;;1999.90;999.90;;;1.10;99.90;;;;;;5068770;28;20023;-74
2022/12/05 08:15:20;;;;;;;1999.90;999.90;;;1.10;99.90;;;;;;5059552;28;20033;-74
2022/12/05 08:17:45;;;;;;;1999.90;999.90;;;1.20;99.90;;;;;;5070442;28;20459;-77
2022/12/05 08:20:11;;;;;;;1999.90;999.90;;;1.30;99.90;;;;;;5068120;28;20028;-74
2022/12/05 08:22:37;;;;;;;1999.90;999.90;;;1.40;99.90;;;;;;5067611;28;20788;-74
2022/12/05 08:25:03;;;;;;;1999.90;999.90;;;1.50;99.90;;;;;;5070328;28;20032;-74
2022/12/05 08:27:29;;;;;;;1999.90;999.90;;;1.60;99.90;;;;;;5063868;28;20340;-74
2022/12/05 08:30:05;;;;;;;1999.90;999.90;;;1.70;99.90;;;;;;5064796;28;20031;-77
2022/12/05 08:32:31;;;;;;;1999.90;999.90;;;1.80;99.90;;;;;;5068162;28;20025;-74
2022/12/05 08:34:56;;;;;;;1999.90;999.90;;;2.10;99.90;;;;;;5071090;28;20086;-74
2022/12/05 08:37:22;;;;;;;1999.90;999.90;;;3.00;99.90;;;;;;5071171;28;20036;-78
2022/12/05 08:39:48;;;;;;;1999.90;999.90;;;3.00;99.90;;;;;;5066442;28;20106;-75
2022/12/05 08:42:14;;;;;;;1999.90;999.90;;;2.80;99.90;;;;;;5067629;28;20043;-76
2022/12/05 08:44:40;;;;;;;1999.90;999.90;;;2.60;99.90;;;;;;5075110;28;20479;-74
2022/12/05 08:47:05;;;;;;;1999.90;999.90;;;2.60;99.90;;;;;;5092616;28;20028;-74
2022/12/05 08:49:31;;;;;;;1999.90;999.90;;;2.70;99.90;;;;;;5077232;28;20581;-77
2022/12/05 08:51:57;;;;;;;1999.90;999.90;;;2.60;99.90;;;;;;5071590;28;20036;-77
2022/12/05 08:54:22;;;;;;;1999.90;999.90;;;2.70;99.90;;;;;;5071289;28;20021;-73
2022/12/05 08:56:51;;;;;;;1999.90;999.90;;;2.60;99.90;;;;;;5070922;28;20145;-77
2022/12/05 08:59:16;;;;;;;1999.90;999.90;;;2.60;99.90;;;;;;5075786;28;20020;-74
2022/12/05 09:01:42;;;;;;;1999.90;999.90;;;2.70;99.90;;;;;;5072377;28;20381;-74
2022/12/05 09:04:08;;;;;;;1999.90;999.90;;;2.70;99.90;;;;;;5070379;28;20094;-74
2022/12/05 09:06:35;;;;;;;1999.90;999.90;;;2.70;99.90;;;;;;5068900;28;20036;-77
2022/12/05 09:09:04;;;;;;;1999.90;999.90;;;2.70;99.90;;;;;;5067930;28;20173;-78
2022/12/05 09:11:33;;;;;;;1999.90;999.90;;;2.80;99.90;;;;;;5068869;28;20028;-74
2022/12/05 09:14:00;;;;;;;1999.90;999.90;;;2.70;99.90;;;;;;5073090;28;20406;-77
2022/12/05 09:16:31;;;;;;;1999.90;999.90;;;2.70;99.90;;;;;;5071341;28;20028;-77
2022/12/05 09:18:57;;;;;;;1999.90;999.90;;;2.70;99.90;;;;;;5069737;28;20495;-77
2022/12/05 09:21:25;;;;;;;1999.90;999.90;;;2.80;99.90;;;;;;5069908;28;20029;-74
2022/12/05 09:23:51;;;;;;;1999.90;999.90;;;2.90;99.90;;;;;;5069597;28;20496;-77
2022/12/05 09:26:22;;;;;;;1999.90;999.90;;;2.90;99.90;;;;;;5062236;28;20407;-74
2022/12/05 09:28:48;;;;;;;1999.90;999.90;;;3.00;99.90;;;;;;5077297;28;20017;-77
2022/12/05 09:31:22;;;;;;;1999.90;999.90;;;3.10;99.90;;;;;;5079819;28;20466;-77
2022/12/05 09:33:50;;;;;;;1999.90;999.90;;;3.10;99.90;;;;;;5080207;28;20024;-77
2022/12/05 09:36:17;;;;;;;1999.90;999.90;;;3.20;99.90;;;;;;5057744;28;20039;-74
2022/12/05 09:38:43;;;;;;;1999.90;999.90;;;3.30;99.90;;;;;;5075796;28;20036;-77
2022/12/05 09:44:52;;;;;;;1999.90;999.90;;;3.50;99.90;;;;;;5070666;28;20063;-76
2022/12/05 09:47:29;;;;;;;1999.90;999.90;;;3.70;99.90;;;;;;5069115;28;20086;-77
2022/12/05 09:50:01;;;;;;;1999.90;999.90;;;3.80;99.90;;;;;;5063665;28;20023;-74
2022/12/05 09:52:32;;;;;;;1999.90;999.90;;;3.90;99.90;;;;;;5062856;28;20482;-78
2022/12/05 09:55:13;;;;;;;1999.90;999.90;;;4.00;99.90;;;;;;5070916;28;20036;-78
2022/12/05 09:57:54;;;;;;;1999.90;999.90;;;4.10;99.90;;;;;;5069699;28;20040;-77
2022/12/05 10:00:20;;;;;;;1999.90;999.90;;;4.30;99.90;;;;;;5071580;28;20125;-75
2022/12/05 10:03:12;;;;;;;1999.90;999.90;;;4.40;99.90;;;;;;5066093;28;20056;-74
2022/12/05 10:05:41;;;;;;;1999.90;999.90;;;4.50;99.90;;;;;;5064052;28;20036;-74
2022/12/05 10:08:40;;;;;;;1999.90;999.90;;;4.60;99.90;;;;;;5070117;28;20063;-77
2022/12/05 10:11:24;;;;;;;1999.90;999.90;;;4.80;99.90;;;;;;5060120;28;20123;-78
2022/12/05 10:14:06;;;;;;;1999.90;999.90;;;5.00;99.90;;;;;;5070365;28;20028;-78
2022/12/05 10:16:37;;;;;;;1999.90;999.90;;;5.20;99.90;;;;;;5082964;28;20032;-75
2022/12/05 10:19:13;;;;;;;1999.90;999.90;;;5.30;99.90;;;;;;5066695;28;20080;-74
2022/12/05 10:21:55;;;;;;;1999.90;999.90;;;5.40;99.90;;;;;;5074768;28;20040;-77
2022/12/05 10:24:40;;;;;;;1999.90;999.90;;;5.40;99.90;;;;;;5066829;28;20020;-74
2022/12/05 10:27:09;;;;;;;1999.90;999.90;;;5.60;99.90;;;;;;5066223;28;20025;-77
2022/12/05 10:29:39;;;;;;;1999.90;999.90;;;5.60;99.90;;;;;;5066762;28;20191;-74
2022/12/05 10:32:21;;;;;;;1999.90;999.90;;;5.70;99.90;;;;;;5066497;28;20098;-75
2022/12/05 10:34:46;;;;;;;1999.90;999.90;;;5.90;99.90;;;;;;5058208;28;20116;-78
2022/12/05 10:37:21;;;;;;;1999.90;999.90;;;5.90;99.90;;;;;;5072830;28;20147;-75
2022/12/05 10:39:48;;;;;;;1999.90;999.90;;;5.90;99.90;;;;;;5067914;28;20036;-77
2022/12/05 10:42:28;;;;;;;1999.90;999.90;;;6.00;99.90;;;;;;5074394;28;20055;-74
2022/12/05 10:45:21;;;;;;;1999.90;999.90;;;6.20;99.90;;;;;;5073699;28;20023;-75
2022/12/05 10:47:52;;;;;;;1999.90;999.90;;;6.30;99.90;;;;;;5069545;28;20457;-75
2022/12/05 10:50:36;;;;;;;1999.90;999.90;;;6.50;99.90;;;;;;5084109;28;20020;-74
2022/12/05 10:53:03;;;;;;;1999.90;999.90;;;6.60;99.90;;;;;;5069176;28;20579;-77
2022/12/05 10:55:35;;;;;;;1999.90;999.90;;;6.70;99.90;;;;;;5071941;28;20375;-77
2022/12/05 10:58:15;;;;;;;1999.90;999.90;;;6.90;99.90;;;;;;5065089;28;20027;-74
2022/12/05 11:00:45;;;;;;;1999.90;999.90;;;6.90;99.90;;;;;;5062620;28;20024;-76
2022/12/05 11:03:27;;;;;;;1999.90;999.90;;;7.10;99.90;;;;;;5068145;28;20048;-77
2022/12/05 11:05:56;;;;;;;1999.90;999.90;;;7.20;99.90;;;;;;5074611;28;20029;-77
2022/12/05 11:08:33;;;;;;;1999.90;999.90;;;7.30;99.90;;;;;;5069168;28;20534;-74
2022/12/05 11:11:21;;;;;;;1999.90;999.90;;;7.40;99.90;;;;;;5068273;28;20048;-75
2022/12/05 11:13:58;;;;;;;1999.90;999.90;;;7.60;99.90;;;;;;5059918;28;20462;-74
2022/12/05 11:16:36;;;;;;;1999.90;999.90;;;7.80;99.90;;;;;;5069596;28;20111;-76
2022/12/05 11:19:20;;;;;;;1999.90;999.90;;;7.70;99.90;;;;;;5053602;28;20483;-76
2022/12/05 11:21:49;;;;;;;1999.90;999.90;;;7.70;99.90;;;;;;5059989;28;20037;-79
2022/12/05 11:24:32;;;;;;;1999.90;999.90;;;7.70;99.90;;;;;;5062679;28;20051;-76
2022/12/05 11:26:59;;;;;;;;;;;7.90;99.90;;;;;;5065119;28;20499;-76
2022/12/05 11:29:37;;;;;;;1999.90;999.90;;;8.00;99.90;;;;;;5067132;28;20020;-78
2022/12/05 11:32:05;;;;;;;1999.90;999.90;;;8.20;99.90;;;;;;5078090;28;20032;-76
2022/12/05 11:34:40;;;;;;;1999.90;999.90;;;8.30;99.90;;;;;;5068278;28;20041;-76
2022/12/05 11:37:21;;;;;;;1999.90;999.90;;;8.50;99.90;;;;;;5060985;28;20462;-76
2022/12/05 11:39:47;;;;;;;1999.90;999.90;;;8.60;99.90;;;;;;5063415;28;20450;-78
2022/12/05 11:42:38;;;;;;;1999.90;999.90;;;8.80;99.90;;;;;;5066909;28;20086;-76
2022/12/05 11:45:34;;;;;;;1999.90;999.90;;;8.80;99.90;;;;;;5068137;28;20029;-80
2022/12/05 11:48:27;;;;;;;1999.90;999.90;;;9.10;99.90;;;;;;5065201;28;20021;-76
2022/12/05 11:51:10;;;;;;;1999.90;999.90;;;9.30;99.90;;;;;;5064280;28;20225;-79
2022/12/05 11:54:12;;;;;;;1999.90;999.90;;;9.50;99.90;;;;;;5065365;28;20032;-76
2022/12/05 11:57:01;;;;;;;1999.90;999.90;;;9.50;99.90;;;;;;5069422;28;20028;-79
2022/12/05 11:59:38;;;;;;;1999.90;999.90;;;9.70;99.90;;;;;;5062589;28;20028;-76
2022/12/05 12:02:30;;;;;;;1999.90;999.90;;;9.80;99.90;;;;;;5061199;28;20113;-77
2022/12/05 12:05:13;;;;;;;1999.90;999.90;;;9.90;99.90;;;;;;5040816;28;20037;-76
2022/12/05 12:07:41;;;;;;;1999.90;999.90;;;9.90;99.90;;;;;;5061135;28;20078;-74
2022/12/05 12:10:21;;;;;;;1999.90;999.90;;;10.00;99.90;;;;;;5069371;28;20059;-76
2022/12/05 12:13:05;;;;;;;1999.90;999.90;;;10.10;99.90;;;;;;5057623;28;20059;-74
2022/12/05 12:15:46;;;;;;;1999.90;999.90;;;10.30;99.90;;;;;;5074018;28;20069;-74
2022/12/05 12:18:44;;;;;;;1999.90;999.90;;;10.30;99.90;;;;;;5061005;28;20442;-76
2022/12/05 12:21:41;;;;;;;1999.90;999.90;;;10.40;99.90;;;;;;5034397;28;20053;-77
2022/12/05 12:24:38;;;;;;;1999.90;999.90;;;10.40;99.90;;;;;;5068328;28;20032;-77
2022/12/05 12:27:37;;;;;;;1999.90;999.90;;;10.50;99.90;;;;;;5058152;28;20480;-74
2022/12/05 12:30:49;;;;;;;1999.90;999.90;;;10.60;99.90;;;;;;5070992;28;20020;-74
2022/12/05 12:34:13;;;;;;;1999.90;999.90;;;10.80;99.90;;;;;;5035386;28;20040;-77
2022/12/05 12:36:52;;;;;;;1999.90;999.90;;;11.00;99.90;;;;;;4988914;28;20034;-77
2022/12/05 12:39:43;;;;;;;1999.90;999.90;;;11.20;99.90;;;;;;5007190;28;20030;-77